sensor_id;sensor_type;location;lat;lon;timestamp;pressure;altitude;pressure_sealevel;temperature;humidity
71239;BME280;61342;51.442;7.370;2022-12-16T00:00:43;99426.19;;;-2.95;75.00
71239;BME280;61342;51.442;7.370;2022-12-16T00:01:46;99430.41;;;-2.90;75.07
71239;BME280;61342;51.442;7.370;2022-12-16T00:02:46;99434.00;;;-2.90;75.04
71239;BME280;61342;51.442;7.370;2022-12-16T00:03:56;99438.06;;;-2.91;75.20
71239;BME280;61342;51.442;7.370;2022-12-16T00:05:00;99432.91;;;-2.92;74.92
71239;BME280;61342;51.442;7.370;2022-12-16T00:06:00;99427.72;;;-2.94;75.01
71239;BME280;61342;51.442;7.370;2022-12-16T00:07:03;99434.91;;;-2.93;75.09
71239;BME280;61342;51.442;7.370;2022-12-16T00:08:04;99425.84;;;-2.97;74.89
71239;BME280;61342;51.442;7.370;2022-12-16T00:09:04;99428.66;;;-2.97;74.88
71239;BME280;61342;51.442;7.370;2022-12-16T00:10:05;99419.44;;;-2.97;74.92
71239;BME280;61342;51.442;7.370;2022-12-16T00:11:09;99430.22;;;-2.96;75.11
71239;BME280;61342;51.442;7.370;2022-12-16T00:12:13;99424.59;;;-2.96;75.01
71239;BME280;61342;51.442;7.370;2022-12-16T00:13:13;99420.34;;;-3.00;74.96
71239;BME280;61342;51.442;7.370;2022-12-16T00:14:13;99423.78;;;-2.96;75.26
71239;BME280;61342;51.442;7.370;2022-12-16T00:15:19;99425.97;;;-3.00;75.03
71239;BME280;61342;51.442;7.370;2022-12-16T00:16:22;99436.31;;;-2.97;75.29
71239;BME280;61342;51.442;7.370;2022-12-16T00:17:23;99428.66;;;-2.97;75.02
71239;BME280;61342;51.442;7.370;2022-12-16T00:18:23;99425.19;;;-3.01;75.06
71239;BME280;61342;51.442;7.370;2022-12-16T00:19:24;99432.69;;;-2.98;75.16
71239;BME280;61342;51.442;7.370;2022-12-16T00:20:26;99424.41;;;-3.01;75.00
71239;BME280;61342;51.442;7.370;2022-12-16T00:21:27;99428.00;;;-3.01;74.92
71239;BME280;61342;51.442;7.370;2022-12-16T00:22:30;99426.13;;;-3.04;75.07
71239;BME280;61342;51.442;7.370;2022-12-16T00:23:31;99427.69;;;-3.03;75.06
71239;BME280;61342;51.442;7.370;2022-12-16T00:24:32;99431.28;;;-3.02;75.20
71239;BME280;61342;51.442;7.370;2022-12-16T00:25:32;99420.63;;;-3.07;75.09
71239;BME280;61342;51.442;7.370;2022-12-16T00:26:33;99422.19;;;-3.06;74.81
71239;BME280;61342;51.442;7.370;2022-12-16T00:27:33;99425.47;;;-3.08;74.70
71239;BME280;61342;51.442;7.370;2022-12-16T00:28:34;99417.50;;;-3.09;74.73
71239;BME280;61342;51.442;7.370;2022-12-16T00:29:37;99418.72;;;-3.10;74.76
71239;BME280;61342;51.442;7.370;2022-12-16T00:30:41;99420.13;;;-3.15;74.64
71239;BME280;61342;51.442;7.370;2022-12-16T00:31:41;99410.88;;;-3.15;74.92
71239;BME280;61342;51.442;7.370;2022-12-16T00:32:44;99420.44;;;-3.13;74.69
71239;BME280;61342;51.442;7.370;2022-12-16T00:33:44;99424.00;;;-3.12;74.78
71239;BME280;61342;51.442;7.370;2022-12-16T00:34:44;99418.53;;;-3.16;74.71
71239;BME280;61342;51.442;7.370;2022-12-16T00:35:45;99423.34;;;-3.16;74.90
71239;BME280;61342;51.442;7.370;2022-12-16T00:36:48;99421.00;;;-3.18;74.93
71239;BME280;61342;51.442;7.370;2022-12-16T00:37:49;99424.63;;;-3.17;74.18
71239;BME280;61342;51.442;7.370;2022-12-16T00:38:50;99421.34;;;-3.16;74.80
71239;BME280;61342;51.442;7.370;2022-12-16T00:39:51;99427.88;;;-3.19;74.79
71239;BME280;61342;51.442;7.370;2022-12-16T00:40:54;99427.88;;;-3.19;74.46
71239;BME280;61342;51.442;7.370;2022-12-16T00:41:55;99439.91;;;-3.18;74.52
71239;BME280;61342;51.442;7.370;2022-12-16T00:42:55;99431.59;;;-3.22;74.53
71239;BME280;61342;51.442;7.370;2022-12-16T00:43:58;99427.22;;;-3.23;74.63
71239;BME280;61342;51.442;7.370;2022-12-16T00:44:58;99440.50;;;-3.23;74.79
71239;BME280;61342;51.442;7.370;2022-12-16T00:45:59;99433.94;;;-3.20;74.56
71239;BME280;61342;51.442;7.370;2022-12-16T00:46:59;99436.75;;;-3.20;74.83
71239;BME280;61342;51.442;7.370;2022-12-16T00:48:00;99440.03;;;-3.22;74.79
71239;BME280;61342;51.442;7.370;2022-12-16T00:49:00;99440.19;;;-3.25;74.55
71239;BME280;61342;51.442;7.370;2022-12-16T00:50:00;99436.09;;;-3.24;74.69
71239;BME280;61342;51.442;7.370;2022-12-16T00:51:04;99440.50;;;-3.23;74.52
71239;BME280;61342;51.442;7.370;2022-12-16T00:52:04;99432.91;;;-3.35;74.63
71239;BME280;61342;51.442;7.370;2022-12-16T00:53:05;99432.97;;;-3.26;74.59
71239;BME280;61342;51.442;7.370;2022-12-16T00:54:05;99438.13;;;-3.25;74.47
71239;BME280;61342;51.442;7.370;2022-12-16T00:55:08;99445.00;;;-3.26;74.91
71239;BME280;61342;51.442;7.370;2022-12-16T00:56:10;99440.19;;;-3.25;74.54
71239;BME280;61342;51.442;7.370;2022-12-16T00:57:13;99440.28;;;-3.29;74.51
71239;BME280;61342;51.442;7.370;2022-12-16T00:58:13;99429.53;;;-3.30;74.55
71239;BME280;61342;51.442;7.370;2022-12-16T00:59:14;99438.59;;;-3.26;74.57
71239;BME280;61342;51.442;7.370;2022-12-16T01:00:15;99435.78;;;-3.26;74.87
71239;BME280;61342;51.442;7.370;2022-12-16T01:01:19;99436.56;;;-3.26;74.86
71239;BME280;61342;51.442;7.370;2022-12-16T01:02:19;99433.75;;;-3.26;74.94
71239;BME280;61342;51.442;7.370;2022-12-16T01:03:20;99433.09;;;-3.30;74.71
71239;BME280;61342;51.442;7.370;2022-12-16T01:04:20;99430.63;;;-3.28;74.79
71239;BME280;61342;51.442;7.370;2022-12-16T01:05:22;99433.44;;;-3.28;74.81
71239;BME280;61342;51.442;7.370;2022-12-16T01:06:25;99438.25;;;-3.28;74.85
71239;BME280;61342;51.442;7.370;2022-12-16T01:07:29;99434.69;;;-3.29;74.60
71239;BME280;61342;51.442;7.370;2022-12-16T01:08:35;99428.41;;;-3.33;74.66
71239;BME280;61342;51.442;7.370;2022-12-16T01:09:35;99430.75;;;-3.31;74.89
71239;BME280;61342;51.442;7.370;2022-12-16T01:10:38;99426.84;;;-3.34;74.50
71239;BME280;61342;51.442;7.370;2022-12-16T01:11:38;99439.94;;;-3.31;74.43
71239;BME280;61342;51.442;7.370;2022-12-16T01:12:39;99423.38;;;-3.38;74.59
71239;BME280;61342;51.442;7.370;2022-12-16T01:13:48;99441.22;;;-3.32;74.58
71239;BME280;61342;51.442;7.370;2022-12-16T01:14:50;99433.38;;;-3.37;74.82
71239;BME280;61342;51.442;7.370;2022-12-16T01:15:50;99435.06;;;-3.39;74.55
71239;BME280;61342;51.442;7.370;2022-12-16T01:16:51;99441.03;;;-3.37;74.59
71239;BME280;61342;51.442;7.370;2022-12-16T01:17:54;99441.03;;;-3.37;74.58
71239;BME280;61342;51.442;7.370;2022-12-16T01:18:56;99441.03;;;-3.37;74.44
71239;BME280;61342;51.442;7.370;2022-12-16T01:19:57;99447.41;;;-3.37;74.53
71239;BME280;61342;51.442;7.370;2022-12-16T01:21:11;99439.91;;;-3.40;74.57
71239;BME280;61342;51.442;7.370;2022-12-16T01:22:11;99445.06;;;-3.38;74.73
71239;BME280;61342;51.442;7.370;2022-12-16T01:23:13;99447.06;;;-3.39;74.71
71239;BME280;61342;51.442;7.370;2022-12-16T01:24:13;99442.38;;;-3.42;74.68
71239;BME280;61342;51.442;7.370;2022-12-16T01:25:13;99442.72;;;-3.40;74.70
71239;BME280;61342;51.442;7.370;2022-12-16T01:26:16;99430.75;;;-3.52;74.67
71239;BME280;61342;51.442;7.370;2022-12-16T01:27:17;99445.94;;;-3.41;74.39
71239;BME280;61342;51.442;7.370;2022-12-16T01:28:20;99440.28;;;-3.50;74.47
71239;BME280;61342;51.442;7.370;2022-12-16T01:29:20;99450.16;;;-3.45;74.43
71239;BME280;61342;51.442;7.370;2022-12-16T01:30:24;99445.75;;;-3.46;74.39
71239;BME280;61342;51.442;7.370;2022-12-16T01:31:25;99461.38;;;-3.45;74.61
71239;BME280;61342;51.442;7.370;2022-12-16T01:32:28;99451.38;;;-3.46;74.45
71239;BME280;61342;51.442;7.370;2022-12-16T01:33:30;99456.69;;;-3.48;74.57
71239;BME280;61342;51.442;7.370;2022-12-16T01:34:32;99462.28;;;-3.48;74.61
71239;BME280;61342;51.442;7.370;2022-12-16T01:35:37;99466.69;;;-3.47;74.41
71239;BME280;61342;51.442;7.370;2022-12-16T01:36:40;99466.78;;;-3.51;74.75
71239;BME280;61342;51.442;7.370;2022-12-16T01:37:40;99469.13;;;-3.49;74.68
71239;BME280;61342;51.442;7.370;2022-12-16T01:38:42;99467.91;;;-3.48;74.40
71239;BME280;61342;51.442;7.370;2022-12-16T01:39:44;99462.75;;;-3.50;74.55
71239;BME280;61342;51.442;7.370;2022-12-16T01:40:44;99454.78;;;-3.51;74.31
71239;BME280;61342;51.442;7.370;2022-12-16T01:41:44;99461.94;;;-3.50;74.58
71239;BME280;61342;51.442;7.370;2022-12-16T01:42:45;99457.25;;;-3.53;74.59
71239;BME280;61342;51.442;7.370;2022-12-16T01:43:45;99460.41;;;-3.51;74.70
71239;BME280;61342;51.442;7.370;2022-12-16T01:44:48;99455.56;;;-3.51;74.63
71239;BME280;61342;51.442;7.370;2022-12-16T01:45:48;99458.03;;;-3.53;74.83
71239;BME280;61342;51.442;7.370;2022-12-16T01:46:58;99461.28;;;-3.54;74.24
71239;BME280;61342;51.442;7.370;2022-12-16T01:48:31;99464.56;;;-3.56;74.41
71239;BME280;61342;51.442;7.370;2022-12-16T01:49:41;99454.13;;;-3.55;74.74
71239;BME280;61342;51.442;7.370;2022-12-16T01:50:43;99458.16;;;-3.56;74.78
71239;BME280;61342;51.442;7.370;2022-12-16T01:51:44;99458.16;;;-3.56;74.62
71239;BME280;61342;51.442;7.370;2022-12-16T01:52:49;99454.91;;;-3.55;74.50
71239;BME280;61342;51.442;7.370;2022-12-16T01:53:56;99453.00;;;-3.58;74.51
71239;BME280;61342;51.442;7.370;2022-12-16T01:55:11;99446.28;;;-3.60;74.49
71239;BME280;61342;51.442;7.370;2022-12-16T01:56:16;99462.56;;;-3.55;74.82
71239;BME280;61342;51.442;7.370;2022-12-16T01:57:22;99460.50;;;-3.55;74.82
71239;BME280;61342;51.442;7.370;2022-12-16T01:58:28;99458.94;;;-3.56;74.62
71239;BME280;61342;51.442;7.370;2022-12-16T01:59:31;99459.09;;;-3.59;74.85
71239;BME280;61342;51.442;7.370;2022-12-16T02:00:34;99459.75;;;-3.55;74.62
71239;BME280;61342;51.442;7.370;2022-12-16T02:01:35;99463.78;;;-3.56;74.73
71239;BME280;61342;51.442;7.370;2022-12-16T02:02:35;99462.56;;;-3.55;74.92
71239;BME280;61342;51.442;7.370;2022-12-16T02:03:37;99458.94;;;-3.56;74.86
71239;BME280;61342;51.442;7.370;2022-12-16T02:04:37;99460.97;;;-3.56;74.98
71239;BME280;61342;51.442;7.370;2022-12-16T02:05:58;99456.28;;;-3.59;74.93
71239;BME280;61342;51.442;7.370;2022-12-16T02:06:59;99455.00;;;-3.58;74.69
71239;BME280;61342;51.442;7.370;2022-12-16T02:09:06;99465.47;;;-3.59;74.64
71239;BME280;61342;51.442;7.370;2022-12-16T02:10:07;99468.59;;;-3.57;74.94
71239;BME280;61342;51.442;7.370;2022-12-16T02:15:19;99467.16;;;-3.61;74.64
71239;BME280;61342;51.442;7.370;2022-12-16T02:16:52;99466.50;;;-3.65;74.39
71239;BME280;61342;51.442;7.370;2022-12-16T02:18:04;99464.47;;;-3.65;74.80
71239;BME280;61342;51.442;7.370;2022-12-16T02:20:42;99468.06;;;-3.64;74.56
71239;BME280;61342;51.442;7.370;2022-12-16T02:24:00;99468.19;;;-3.68;74.68
71239;BME280;61342;51.442;7.370;2022-12-16T02:36:13;99476.41;;;-3.73;74.83
71239;BME280;61342;51.442;7.370;2022-12-16T02:37:38;99482.94;;;-3.76;74.55
71239;BME280;61342;51.442;7.370;2022-12-16T02:39:13;99470.13;;;-3.77;74.60
71239;BME280;61342;51.442;7.370;2022-12-16T02:41:10;99470.13;;;-3.77;74.88
71239;BME280;61342;51.442;7.370;2022-12-16T02:42:14;99479.78;;;-3.78;74.89
71239;BME280;61342;51.442;7.370;2022-12-16T02:44:28;99477.78;;;-3.78;74.61
71239;BME280;61342;51.442;7.370;2022-12-16T02:45:33;99477.44;;;-3.80;74.71
71239;BME280;61342;51.442;7.370;2022-12-16T02:46:40;99480.91;;;-3.76;74.72
71239;BME280;61342;51.442;7.370;2022-12-16T02:47:40;99476.50;;;-3.77;74.70
71239;BME280;61342;51.442;7.370;2022-12-16T02:48:41;99472.47;;;-3.76;75.03
71239;BME280;61342;51.442;7.370;2022-12-16T02:49:46;99480.91;;;-3.76;75.02
71239;BME280;61342;51.442;7.370;2022-12-16T02:50:51;99485.75;;;-3.76;75.03
71239;BME280;61342;51.442;7.370;2022-12-16T02:51:51;99477.78;;;-3.78;74.72
71239;BME280;61342;51.442;7.370;2022-12-16T02:52:54;99471.47;;;-3.82;74.85
71239;BME280;61342;51.442;7.370;2022-12-16T02:53:56;99485.38;;;-3.78;75.19
71239;BME280;61342;51.442;7.370;2022-12-16T02:54:59;99475.75;;;-3.77;74.87
71239;BME280;61342;51.442;7.370;2022-12-16T02:58:26;99481.66;;;-3.75;74.90
71239;BME280;61342;51.442;7.370;2022-12-16T03:03:36;99490.34;;;-3.82;75.19
71239;BME280;61342;51.442;7.370;2022-12-16T03:04:46;99481.91;;;-3.82;75.04
71239;BME280;61342;51.442;7.370;2022-12-16T03:05:52;99488.31;;;-3.82;75.06
71239;BME280;61342;51.442;7.370;2022-12-16T03:06:55;99486.75;;;-3.83;74.86
71239;BME280;61342;51.442;7.370;2022-12-16T03:08:00;99484.72;;;-3.82;75.12
71239;BME280;61342;51.442;7.370;2022-12-16T03:09:06;99480.03;;;-3.85;74.99
71239;BME280;61342;51.442;7.370;2022-12-16T03:10:12;99484.84;;;-3.86;74.97
71239;BME280;61342;51.442;7.370;2022-12-16T03:11:13;99482.84;;;-3.85;74.95
71239;BME280;61342;51.442;7.370;2022-12-16T03:12:15;99482.50;;;-3.87;74.87
71239;BME280;61342;51.442;7.370;2022-12-16T03:13:19;99480.59;;;-3.90;74.93
71239;BME280;61342;51.442;7.370;2022-12-16T03:14:22;99483.09;;;-3.92;74.97
71239;BME280;61342;51.442;7.370;2022-12-16T03:15:25;99484.97;;;-3.89;74.88
71239;BME280;61342;51.442;7.370;2022-12-16T03:16:32;99473.84;;;-3.93;74.77
71239;BME280;61342;51.442;7.370;2022-12-16T03:17:35;99485.75;;;-3.89;74.91
71239;BME280;61342;51.442;7.370;2022-12-16T03:18:39;99482.28;;;-3.93;74.87
71239;BME280;61342;51.442;7.370;2022-12-16T03:19:44;99480.28;;;-3.92;74.95
71239;BME280;61342;51.442;7.370;2022-12-16T03:20:52;99476.34;;;-3.95;74.81
71239;BME280;61342;51.442;7.370;2022-12-16T03:22:11;99481.16;;;-3.95;74.85
71239;BME280;61342;51.442;7.370;2022-12-16T03:23:18;99486.78;;;-3.95;74.67
71239;BME280;61342;51.442;7.370;2022-12-16T03:24:20;99486.09;;;-3.99;74.68
71239;BME280;61342;51.442;7.370;2022-12-16T03:25:21;99488.34;;;-3.94;74.93
71239;BME280;61342;51.442;7.370;2022-12-16T03:26:28;99484.31;;;-3.93;74.60
71239;BME280;61342;51.442;7.370;2022-12-16T03:27:41;99481.97;;;-3.95;74.56
71239;BME280;61342;51.442;7.370;2022-12-16T03:28:50;99492.06;;;-3.97;74.54
71239;BME280;61342;51.442;7.370;2022-12-16T03:30:06;99486.44;;;-3.97;74.81
71239;BME280;61342;51.442;7.370;2022-12-16T03:31:39;99483.75;;;-4.01;74.59
71239;BME280;61342;51.442;7.370;2022-12-16T03:32:45;99481.28;;;-3.99;74.74
71239;BME280;61342;51.442;7.370;2022-12-16T03:34:11;99479.72;;;-4.00;74.56
71239;BME280;61342;51.442;7.370;2022-12-16T03:35:19;99488.91;;;-3.99;74.85
71239;BME280;61342;51.442;7.370;2022-12-16T03:36:23;99481.75;;;-4.00;74.88
71239;BME280;61342;51.442;7.370;2022-12-16T03:37:27;99493.28;;;-3.98;74.84
71239;BME280;61342;51.442;7.370;2022-12-16T03:38:31;99490.47;;;-3.98;74.73
71239;BME280;61342;51.442;7.370;2022-12-16T03:39:36;99485.31;;;-4.00;74.68
71239;BME280;61342;51.442;7.370;2022-12-16T03:40:41;99492.50;;;-3.99;74.83
71239;BME280;61342;51.442;7.370;2022-12-16T03:41:43;99491.41;;;-4.01;74.45
71239;BME280;61342;51.442;7.370;2022-12-16T03:42:44;99489.38;;;-4.01;74.75
71239;BME280;61342;51.442;7.370;2022-12-16T03:43:45;99488.91;;;-3.99;74.85
71239;BME280;61342;51.442;7.370;2022-12-16T03:44:48;99495.31;;;-3.99;74.72
71239;BME280;61342;51.442;7.370;2022-12-16T03:45:52;99490.16;;;-4.00;74.78
71239;BME280;61342;51.442;7.370;2022-12-16T03:46:54;99496.56;;;-4.00;74.80
71239;BME280;61342;51.442;7.370;2022-12-16T03:47:56;99491.72;;;-3.99;74.48
71239;BME280;61342;51.442;7.370;2022-12-16T03:48:56;99482.53;;;-4.00;74.84
71239;BME280;61342;51.442;7.370;2022-12-16T03:49:57;99482.75;;;-4.06;74.54
71239;BME280;61342;51.442;7.370;2022-12-16T03:50:57;99484.97;;;-4.02;74.61
71239;BME280;61342;51.442;7.370;2022-12-16T03:51:57;99483.84;;;-4.04;74.49
71239;BME280;61342;51.442;7.370;2022-12-16T03:52:58;99484.97;;;-4.02;74.95
71239;BME280;61342;51.442;7.370;2022-12-16T03:53:59;99496.19;;;-4.02;74.83
71239;BME280;61342;51.442;7.370;2022-12-16T03:54:59;99496.66;;;-4.03;74.62
71239;BME280;61342;51.442;7.370;2022-12-16T03:56:00;99488.81;;;-4.08;74.83
71239;BME280;61342;51.442;7.370;2022-12-16T03:57:01;99494.31;;;-4.04;74.72
71239;BME280;61342;51.442;7.370;2022-12-16T03:58:02;99496.78;;;-4.06;74.88
71239;BME280;61342;51.442;7.370;2022-12-16T03:59:02;99505.88;;;-4.02;74.56
71239;BME280;61342;51.442;7.370;2022-12-16T04:00:04;99498.69;;;-4.03;74.80
71239;BME280;61342;51.442;7.370;2022-12-16T04:01:06;99500.69;;;-4.04;74.48
71239;BME280;61342;51.442;7.370;2022-12-16T04:02:08;99497.09;;;-4.04;74.71
71239;BME280;61342;51.442;7.370;2022-12-16T04:03:08;99494.41;;;-4.08;74.60
71239;BME280;61342;51.442;7.370;2022-12-16T04:04:09;99502.72;;;-4.04;74.85
71239;BME280;61342;51.442;7.370;2022-12-16T04:05:09;99497.66;;;-4.09;74.66
71239;BME280;61342;51.442;7.370;2022-12-16T04:06:10;99502.81;;;-4.08;74.60
71239;BME280;61342;51.442;7.370;2022-12-16T04:07:10;99507.56;;;-4.05;74.57
71239;BME280;61342;51.442;7.370;2022-12-16T04:08:20;99500.03;;;-4.08;74.90
71239;BME280;61342;51.442;7.370;2022-12-16T04:09:20;99500.03;;;-4.08;74.54
71239;BME280;61342;51.442;7.370;2022-12-16T04:10:20;99488.28;;;-4.15;74.50
71239;BME280;61342;51.442;7.370;2022-12-16T04:11:41;99497.81;;;-4.13;74.67
71239;BME280;61342;51.442;7.370;2022-12-16T04:13:00;99503.72;;;-4.11;74.54
71239;BME280;61342;51.442;7.370;2022-12-16T04:14:19;99503.41;;;-4.13;74.76
71239;BME280;61342;51.442;7.370;2022-12-16T04:15:38;99498.69;;;-4.16;74.72
71239;BME280;61342;51.442;7.370;2022-12-16T04:16:57;99504.28;;;-4.16;74.59
71239;BME280;61342;51.442;7.370;2022-12-16T04:18:17;99506.41;;;-4.20;74.64
71239;BME280;61342;51.442;7.370;2022-12-16T04:19:37;99504.06;;;-4.21;74.76
71239;BME280;61342;51.442;7.370;2022-12-16T04:20:57;99502.84;;;-4.20;74.63
71239;BME280;61342;51.442;7.370;2022-12-16T04:22:22;99506.88;;;-4.21;74.55
71239;BME280;61342;51.442;7.370;2022-12-16T04:23:50;99507.78;;;-4.24;74.48
71239;BME280;61342;51.442;7.370;2022-12-16T04:25:16;99495.91;;;-4.28;74.60
71239;BME280;61342;51.442;7.370;2022-12-16T04:26:17;99494.31;;;-4.29;74.48
71239;BME280;61342;51.442;7.370;2022-12-16T04:27:18;99512.63;;;-4.25;74.61
71239;BME280;61342;51.442;7.370;2022-12-16T04:28:24;99513.03;;;-4.26;74.58
71239;BME280;61342;51.442;7.370;2022-12-16T04:29:24;99512.72;;;-4.28;74.56
71239;BME280;61342;51.442;7.370;2022-12-16T04:30:25;99510.38;;;-4.30;74.71
71239;BME280;61342;51.442;7.370;2022-12-16T04:31:27;99515.53;;;-4.28;74.67
71239;BME280;61342;51.442;7.370;2022-12-16T04:32:27;99512.72;;;-4.28;74.57
71239;BME280;61342;51.442;7.370;2022-12-16T04:33:48;99517.19;;;-4.31;74.57
71239;BME280;61342;51.442;7.370;2022-12-16T04:35:07;99520.78;;;-4.30;74.61
71239;BME280;61342;51.442;7.370;2022-12-16T04:36:28;99528.88;;;-4.32;74.50
71239;BME280;61342;51.442;7.370;2022-12-16T04:37:47;99522.50;;;-4.33;74.52
71239;BME280;61342;51.442;7.370;2022-12-16T04:39:13;99526.06;;;-4.32;74.52
71239;BME280;61342;51.442;7.370;2022-12-16T04:40:32;99540.09;;;-4.32;74.69
71239;BME280;61342;51.442;7.370;2022-12-16T04:41:52;99528.50;;;-4.34;74.49
71239;BME280;61342;51.442;7.370;2022-12-16T04:43:12;99534.56;;;-4.36;74.45
71239;BME280;61342;51.442;7.370;2022-12-16T04:44:47;99537.06;;;-4.38;74.42
71239;BME280;61342;51.442;7.370;2022-12-16T04:46:06;99543.00;;;-4.36;74.68
71239;BME280;61342;51.442;7.370;2022-12-16T04:47:25;99539.88;;;-4.38;74.67
71239;BME280;61342;51.442;7.370;2022-12-16T04:48:44;99536.38;;;-4.42;74.78
71239;BME280;61342;51.442;7.370;2022-12-16T04:50:03;99533.13;;;-4.40;74.56
71239;BME280;61342;51.442;7.370;2022-12-16T04:51:22;99532.34;;;-4.41;74.63
71239;BME280;61342;51.442;7.370;2022-12-16T04:52:41;99546.69;;;-4.39;74.40
71239;BME280;61342;51.442;7.370;2022-12-16T04:54:00;99526.03;;;-4.45;74.50
71239;BME280;61342;51.442;7.370;2022-12-16T04:55:19;99538.84;;;-4.44;74.38
71239;BME280;61342;51.442;7.370;2022-12-16T04:56:38;99547.91;;;-4.40;74.63
71239;BME280;61342;51.442;7.370;2022-12-16T04:57:59;99550.72;;;-4.40;74.66
71239;BME280;61342;51.442;7.370;2022-12-16T04:59:18;99539.50;;;-4.52;74.40
71239;BME280;61342;51.442;7.370;2022-12-16T05:00:38;99549.50;;;-4.39;74.36
71239;BME280;61342;51.442;7.370;2022-12-16T05:01:57;99540.84;;;-4.44;74.66
71239;BME280;61342;51.442;7.370;2022-12-16T05:03:16;99549.03;;;-4.37;74.45
71239;BME280;61342;51.442;7.370;2022-12-16T05:04:35;99537.47;;;-4.52;74.52
71239;BME280;61342;51.442;7.370;2022-12-16T05:05:54;99542.53;;;-4.47;74.45
71239;BME280;61342;51.442;7.370;2022-12-16T05:07:13;99562.63;;;-4.36;74.38
71239;BME280;61342;51.442;7.370;2022-12-16T05:08:32;99554.78;;;-4.41;74.70
71239;BME280;61342;51.442;7.370;2022-12-16T05:09:51;99556.47;;;-4.43;74.76
71239;BME280;61342;51.442;7.370;2022-12-16T05:11:10;99550.03;;;-4.44;74.30
71239;BME280;61342;51.442;7.370;2022-12-16T05:12:29;99561.50;;;-4.38;74.43
71239;BME280;61342;51.442;7.370;2022-12-16T05:13:48;99540.19;;;-4.48;74.55
71239;BME280;61342;51.442;7.370;2022-12-16T05:15:07;99569.91;;;-4.38;74.66
71239;BME280;61342;51.442;7.370;2022-12-16T05:16:27;99543.09;;;-4.52;74.33
71239;BME280;61342;51.442;7.370;2022-12-16T05:17:46;99562.84;;;-4.43;74.26
71239;BME280;61342;51.442;7.370;2022-12-16T05:19:05;99562.38;;;-4.41;74.44
71239;BME280;61342;51.442;7.370;2022-12-16T05:20:24;99545.56;;;-4.54;74.53
71239;BME280;61342;51.442;7.370;2022-12-16T05:21:46;99547.91;;;-4.52;74.57
71239;BME280;61342;51.442;7.370;2022-12-16T05:23:05;99564.41;;;-4.42;74.38
71239;BME280;61342;51.442;7.370;2022-12-16T05:24:30;99541.41;;;-4.61;74.58
71239;BME280;61342;51.442;7.370;2022-12-16T05:25:49;99540.41;;;-4.55;74.44
71239;BME280;61342;51.442;7.370;2022-12-16T05:27:08;99542.09;;;-4.57;74.30
71239;BME280;61342;51.442;7.370;2022-12-16T05:28:28;99572.16;;;-4.46;74.18
71239;BME280;61342;51.442;7.370;2022-12-16T05:29:47;99574.94;;;-4.46;74.51
71239;BME280;61342;51.442;7.370;2022-12-16T05:31:18;99530.38;;;-4.68;74.36
71239;BME280;61342;51.442;7.370;2022-12-16T05:32:38;99550.50;;;-4.57;74.31
71239;BME280;61342;51.442;7.370;2022-12-16T05:33:57;99573.38;;;-4.47;74.58
71239;BME280;61342;51.442;7.370;2022-12-16T05:35:15;99554.84;;;-4.57;74.55
71239;BME280;61342;51.442;7.370;2022-12-16T05:36:34;99556.53;;;-4.59;74.31
71239;BME280;61342;51.442;7.370;2022-12-16T05:37:54;99577.41;;;-4.48;74.35
71239;BME280;61342;51.442;7.370;2022-12-16T05:39:12;99557.78;;;-4.60;74.26
71239;BME280;61342;51.442;7.370;2022-12-16T05:40:31;99563.69;;;-4.58;74.54
71239;BME280;61342;51.442;7.370;2022-12-16T05:41:50;99574.59;;;-4.60;74.54
71239;BME280;61342;51.442;7.370;2022-12-16T05:43:09;99565.94;;;-4.65;74.27
71239;BME280;61342;51.442;7.370;2022-12-16T05:44:28;99554.06;;;-4.69;74.33
71239;BME280;61342;51.442;7.370;2022-12-16T05:45:47;99586.25;;;-4.49;74.30
71239;BME280;61342;51.442;7.370;2022-12-16T05:47:07;99560.53;;;-4.72;74.43
71239;BME280;61342;51.442;7.370;2022-12-16T05:48:26;99566.47;;;-4.70;74.26
71239;BME280;61342;51.442;7.370;2022-12-16T05:49:45;99595.13;;;-4.51;74.37
71239;BME280;61342;51.442;7.370;2022-12-16T05:51:04;99578.63;;;-4.61;74.51
71239;BME280;61342;51.442;7.370;2022-12-16T05:52:23;99567.72;;;-4.71;74.23
71239;BME280;61342;51.442;7.370;2022-12-16T05:53:46;99588.38;;;-4.65;74.22
71239;BME280;61342;51.442;7.370;2022-12-16T05:55:05;99602.50;;;-4.57;74.23
71239;BME280;61342;51.442;7.370;2022-12-16T05:56:24;99598.00;;;-4.66;74.51
71239;BME280;61342;51.442;7.370;2022-12-16T05:57:43;99593.97;;;-4.65;74.37
71239;BME280;61342;51.442;7.370;2022-12-16T05:59:02;99610.66;;;-4.62;74.23
71239;BME280;61342;51.442;7.370;2022-12-16T06:00:21;99621.34;;;-4.57;74.58
71239;BME280;61342;51.442;7.370;2022-12-16T06:01:40;99614.00;;;-4.67;74.16
71239;BME280;61342;51.442;7.370;2022-12-16T06:02:59;99615.03;;;-4.73;74.32
71239;BME280;61342;51.442;7.370;2022-12-16T06:04:17;99626.69;;;-4.62;74.31
71239;BME280;61342;51.442;7.370;2022-12-16T06:05:36;99629.84;;;-4.60;74.36
71239;BME280;61342;51.442;7.370;2022-12-16T06:06:55;99623.66;;;-4.68;74.45
71239;BME280;61342;51.442;7.370;2022-12-16T06:08:14;99626.78;;;-4.66;74.39
71239;BME280;61342;51.442;7.370;2022-12-16T06:09:33;99607.69;;;-4.83;74.46
71239;BME280;61342;51.442;7.370;2022-12-16T06:10:52;99627.69;;;-4.69;74.21
71239;BME280;61342;51.442;7.370;2022-12-16T06:12:11;99636.41;;;-4.67;74.51
71239;BME280;61342;51.442;7.370;2022-12-16T06:13:31;99639.78;;;-4.72;74.37
71239;BME280;61342;51.442;7.370;2022-12-16T06:14:50;99641.25;;;-4.67;74.51
71239;BME280;61342;51.442;7.370;2022-12-16T06:16:09;99635.50;;;-4.76;74.35
71239;BME280;61342;51.442;7.370;2022-12-16T06:17:28;99649.41;;;-4.73;74.59
71239;BME280;61342;51.442;7.370;2022-12-16T06:18:47;99632.00;;;-4.80;74.50
71239;BME280;61342;51.442;7.370;2022-12-16T06:20:06;99639.78;;;-4.72;74.46
71239;BME280;61342;51.442;7.370;2022-12-16T06:21:25;99634.47;;;-4.82;74.67
71239;BME280;61342;51.442;7.370;2022-12-16T06:22:50;99646.16;;;-4.71;74.47
71239;BME280;61342;51.442;7.370;2022-12-16T06:24:09;99649.34;;;-4.69;74.55
71239;BME280;61342;51.442;7.370;2022-12-16T06:25:28;99654.13;;;-4.70;74.36
71239;BME280;61342;51.442;7.370;2022-12-16T06:26:47;99622.91;;;-4.84;74.38
71239;BME280;61342;51.442;7.370;2022-12-16T06:28:06;99648.53;;;-4.70;74.39
71239;BME280;61342;51.442;7.370;2022-12-16T06:29:25;99651.31;;;-4.70;74.37
71239;BME280;61342;51.442;7.370;2022-12-16T06:30:44;99654.94;;;-4.69;74.43
71239;BME280;61342;51.442;7.370;2022-12-16T06:32:03;99650.19;;;-4.72;74.40
71239;BME280;61342;51.442;7.370;2022-12-16T06:33:22;99655.78;;;-4.72;74.74